Lincoln Acres, California
Current Conditions -  °F | °C
As of 8:51 PM on Monday 20 Oct 2014 (Local Time) from KSAN Reporting Station
Broken Clouds Broken Clouds  
Wind Chill: 70°   Ceiling: 1800
Heat Index: 70°   Visibility: 10mi
Dew Point: 61°   Wind: 5mph
Humidity: 73%   Direction: 310°NW
Pressure: 29.92"   Gusts: NA
Location:  32.67°N, 117.07°W
Report Text: KSAN 210351Z 31004KT 10SM BKN018 21/16 A2992 RMK AO2 SLP131 T02110161
Loading
Personal Weather Stations






























Interactive Weather Map
Tropical Storm Tracking
New forecast layout! Learn more

10-Day Weather Forecast

Advertisements
Track Severe Weather on mobile